Time,TemperatureF,DewpointF,PressureIn,WindDirection,WindDirectionDegrees,WindSpeedMPH,WindSpeedGustMPH,Humidity,HourlyPrecipIn,Conditions,Clouds,dailyrainin,SoftwareType,DateUTC
2013-06-10 00:02:00,57.4,1.3,30.08,ENE,68,0.0,0.0,1,0.00,,,0.00,WUHU216HW,2013-06-10 04:02:00,
2013-06-10 00:07:00,57.2,1.1,30.09,ENE,68,0.0,0.0,1,0.00,,,0.00,WUHU216HW,2013-06-10 04:07:00,
2013-06-10 00:12:00,57.2,1.1,30.09,ENE,68,0.0,0.0,1,0.00,,,0.00,WUHU216HW,2013-06-10 04:12:00,
2013-06-10 00:17:00,57.1,1.0,30.08,ENE,68,0.0,0.0,1,0.00,,,0.00,WUHU216HW,2013-06-10 04:17:00,
2013-06-10 00:22:00,57.2,1.1,30.08,ENE,68,0.0,0.0,1,0.00,,,0.00,WUHU216HW,2013-06-10 04:22:00,
2013-06-10 00:27:00,57.2,1.1,30.08,ENE,68,0.0,0.0,1,0.00,,,0.00,WUHU216HW,2013-06-10 04:27:00,
2013-06-10 00:32:00,57.1,1.0,30.08,ENE,68,0.0,0.0,1,0.00,,,0.00,WUHU216HW,2013-06-10 04:32:00,
2013-06-10 00:37:00,56.9,0.8,30.08,ENE,68,0.0,0.0,1,0.00,,,0.00,WUHU216HW,2013-06-10 04:37:00,
2013-06-10 00:42:00,56.9,0.8,30.09,ENE,68,0.0,0.0,1,0.00,,,0.00,WUHU216HW,2013-06-10 04:42:00,
2013-06-10 00:47:00,56.5,0.5,30.09,ENE,68,0.0,0.0,1,0.00,,,0.00,WUHU216HW,2013-06-10 04:47:00,
2013-06-10 00:52:00,56.5,0.5,30.08,ENE,68,0.0,0.0,1,0.00,,,0.00,WUHU216HW,2013-06-10 04:52:00,
2013-06-10 00:57:00,56.5,0.5,30.08,ENE,68,0.0,0.0,1,0.00,,,0.00,WUHU216HW,2013-06-10 04:57:00,
2013-06-10 01:02:00,56.7,0.7,30.08,ENE,68,0.0,0.0,1,0.00,,,0.00,WUHU216HW,2013-06-10 05:02:00,
2013-06-10 01:07:00,56.7,0.7,30.08,ENE,68,0.0,0.0,1,0.00,,,0.00,WUHU216HW,2013-06-10 05:07:00,
2013-06-10 01:12:00,56.5,0.5,30.08,ENE,68,0.0,0.0,1,0.00,,,0.00,WUHU216HW,2013-06-10 05:12:00,
2013-06-10 01:17:00,56.5,0.5,30.08,ENE,68,0.0,0.0,1,0.00,,,0.00,WUHU216HW,2013-06-10 05:17:00,
2013-06-10 01:22:00,56.5,0.5,30.09,ENE,68,0.0,0.0,1,0.00,,,0.00,WUHU216HW,2013-06-10 05:22:00,
2013-06-10 01:27:00,56.5,0.5,30.09,ENE,68,0.0,0.0,1,0.00,,,0.00,WUHU216HW,2013-06-10 05:27:00,
2013-06-10 01:32:00,56.7,0.7,30.09,ENE,68,0.0,0.0,1,0.00,,,0.00,WUHU216HW,2013-06-10 05:32:00,
2013-06-10 01:37:00,56.5,0.5,30.09,ENE,68,0.0,0.0,1,0.00,,,0.00,WUHU216HW,2013-06-10 05:37:00,
2013-06-10 01:42:00,56.5,0.5,30.09,ENE,68,0.0,0.0,1,0.00,,,0.00,WUHU216HW,2013-06-10 05:42:00,
2013-06-10 01:47:00,56.5,0.5,30.09,ENE,68,0.0,0.0,1,0.00,,,0.00,WUHU216HW,2013-06-10 05:47:00,
2013-06-10 01:52:00,56.7,0.7,30.09,ENE,68,0.0,0.0,1,0.00,,,0.00,WUHU216HW,2013-06-10 05:52:00,
2013-06-10 01:57:00,57.1,1.0,30.09,ENE,68,0.0,0.0,1,0.00,,,0.00,WUHU216HW,2013-06-10 05:57:00,
2013-06-10 02:02:00,57.2,1.1,30.09,ENE,68,0.0,0.0,1,0.00,,,0.00,WUHU216HW,2013-06-10 06:02:00,
2013-06-10 02:07:00,57.4,1.3,30.08,ENE,68,0.4,1.1,1,0.00,,,0.00,WUHU216HW,2013-06-10 06:07:00,
2013-06-10 02:12:00,57.6,1.4,30.08,ENE,68,0.0,1.1,1,0.00,,,0.00,WUHU216HW,2013-06-10 06:12:00,
2013-06-10 02:17:00,57.6,1.4,30.08,ENE,68,0.4,0.7,1,0.00,,,0.00,WUHU216HW,2013-06-10 06:17:00,
2013-06-10 02:22:00,57.8,1.5,30.08,ENE,68,0.7,0.7,1,0.00,,,0.00,WUHU216HW,2013-06-10 06:22:00,
2013-06-10 02:27:00,57.8,1.5,30.08,ENE,68,0.0,0.7,1,0.00,,,0.00,WUHU216HW,2013-06-10 06:27:00,
2013-06-10 02:32:00,58.0,1.6,30.08,ENE,68,0.7,0.7,1,0.00,,,0.00,WUHU216HW,2013-06-10 06:32:00,
2013-06-10 02:37:00,58.0,1.6,30.08,ENE,68,0.4,0.7,1,0.00,,,0.00,WUHU216HW,2013-06-10 06:37:00,
2013-06-10 02:42:00,58.0,1.6,30.08,ENE,68,0.0,0.9,1,0.00,,,0.00,WUHU216HW,2013-06-10 06:42:00,
2013-06-10 02:47:00,57.8,1.5,30.08,ENE,68,0.0,0.9,1,0.00,,,0.00,WUHU216HW,2013-06-10 06:47:00,
2013-06-10 02:52:00,57.6,1.4,30.08,ENE,68,0.0,0.0,1,0.00,,,0.00,WUHU216HW,2013-06-10 06:52:00,
2013-06-10 02:57:00,57.6,1.4,30.07,ENE,68,0.4,0.4,1,0.00,,,0.00,WUHU216HW,2013-06-10 06:57:00,
2013-06-10 03:02:00,57.6,1.4,30.07,ENE,68,0.2,0.4,1,0.00,,,0.00,WUHU216HW,2013-06-10 07:02:00,
2013-06-10 03:07:00,57.6,1.4,30.07,NW,315,0.0,0.9,1,0.00,,,0.00,WUHU216HW,2013-06-10 07:07:00,
2013-06-10 03:12:00,57.6,1.4,30.07,NW,315,0.0,0.9,1,0.00,,,0.00,WUHU216HW,2013-06-10 07:12:00,
2013-06-10 03:17:00,57.4,1.3,30.08,NW,315,0.7,0.7,1,0.00,,,0.00,WUHU216HW,2013-06-10 07:17:00,
2013-06-10 03:22:00,57.4,1.3,30.07,NW,315,0.2,0.7,1,0.00,,,0.00,WUHU216HW,2013-06-10 07:22:00,
2013-06-10 03:27:00,57.2,1.1,30.07,NW,315,0.0,0.4,1,0.00,,,0.00,WUHU216HW,2013-06-10 07:27:00,
2013-06-10 03:32:00,57.2,1.1,30.07,NW,315,0.7,0.7,1,0.00,,,0.00,WUHU216HW,2013-06-10 07:32:00,
2013-06-10 03:37:00,57.2,1.1,30.07,NW,315,1.1,1.1,1,0.00,,,0.00,WUHU216HW,2013-06-10 07:37:00,
2013-06-10 03:42:00,57.2,1.1,30.07,NW,315,0.4,1.3,1,0.00,,,0.00,WUHU216HW,2013-06-10 07:42:00,
2013-06-10 03:47:00,57.2,1.1,30.07,NW,315,0.0,1.3,1,0.00,,,0.00,WUHU216HW,2013-06-10 07:47:00,
2013-06-10 03:52:00,57.1,1.0,30.07,NW,315,0.4,0.9,1,0.00,,,0.00,WUHU216HW,2013-06-10 07:52:00,
2013-06-10 03:57:00,57.2,1.1,30.07,NW,315,0.0,0.9,1,0.00,,,0.00,WUHU216HW,2013-06-10 07:57:00,
2013-06-10 04:02:00,57.2,1.1,30.07,NW,315,0.0,0.9,1,0.00,,,0.00,WUHU216HW,2013-06-10 08:02:00,
2013-06-10 04:07:00,57.2,1.1,30.07,NW,315,0.0,0.0,1,0.00,,,0.00,WUHU216HW,2013-06-10 08:07:00,
2013-06-10 04:12:00,57.4,1.3,30.07,NW,315,0.4,0.4,1,0.00,,,0.00,WUHU216HW,2013-06-10 08:12:00,
2013-06-10 04:17:00,57.6,1.4,30.07,NW,315,0.4,0.4,1,0.00,,,0.00,WUHU216HW,2013-06-10 08:17:00,
2013-06-10 04:22:00,57.8,1.5,30.07,NW,315,0.9,0.9,1,0.00,,,0.00,WUHU216HW,2013-06-10 08:22:00,
2013-06-10 04:27:00,58.0,1.6,30.07,NW,315,0.0,0.9,1,0.00,,,0.00,WUHU216HW,2013-06-10 08:27:00,
2013-06-10 04:32:00,58.0,1.6,30.07,NW,315,0.7,0.9,1,0.00,,,0.00,WUHU216HW,2013-06-10 08:32:00,
2013-06-10 04:38:00,58.0,1.6,30.07,NW,315,0.4,0.9,1,0.00,,,0.00,WUHU216HW,2013-06-10 08:38:00,
2013-06-10 04:43:00,58.0,1.6,30.07,NW,315,0.0,0.9,1,0.00,,,0.00,WUHU216HW,2013-06-10 08:43:00,
2013-06-10 04:48:00,58.1,1.8,30.07,NW,315,0.2,0.4,1,0.00,,,0.00,WUHU216HW,2013-06-10 08:48:00,
2013-06-10 04:53:00,58.1,1.8,30.07,NW,315,0.0,0.4,1,0.00,,,0.00,WUHU216HW,2013-06-10 08:53:00,
2013-06-10 04:58:00,58.0,1.6,30.07,NW,315,0.0,0.4,1,0.00,,,0.00,WUHU216HW,2013-06-10 08:58:00,
2013-06-10 05:03:00,58.1,1.8,30.07,NW,315,0.0,1.1,1,0.00,,,0.00,WUHU216HW,2013-06-10 09:03:00,
2013-06-10 05:08:00,58.3,2.0,30.07,NW,315,0.2,1.1,1,0.00,,,0.00,WUHU216HW,2013-06-10 09:08:00,
2013-06-10 05:13:00,58.3,2.0,30.07,NW,315,0.7,0.7,1,0.00,,,0.00,WUHU216HW,2013-06-10 09:13:00,
2013-06-10 05:18:00,58.3,2.0,30.07,NW,315,0.0,0.7,1,0.00,,,0.00,WUHU216HW,2013-06-10 09:18:00,
2013-06-10 05:23:00,58.5,2.1,30.07,NW,315,0.7,0.7,1,0.00,,,0.00,WUHU216HW,2013-06-10 09:23:00,
2013-06-10 05:28:00,58.7,2.3,30.07,NW,315,0.0,0.7,1,0.00,,,0.00,WUHU216HW,2013-06-10 09:28:00,
2013-06-10 05:33:00,58.7,2.3,30.07,NW,315,0.0,0.4,1,0.00,,,0.00,WUHU216HW,2013-06-10 09:33:00,
2013-06-10 05:38:00,58.7,2.3,30.07,NW,315,0.4,0.4,1,0.00,,,0.00,WUHU216HW,2013-06-10 09:38:00,
2013-06-10 05:43:00,58.9,2.3,30.07,NW,315,0.4,0.7,1,0.00,,,0.00,WUHU216HW,2013-06-10 09:43:00,
2013-06-10 05:48:00,59.0,2.5,30.06,NW,315,0.4,0.9,1,0.00,,,0.00,WUHU216HW,2013-06-10 09:48:00,
2013-06-10 05:53:00,59.0,2.5,30.06,NW,315,0.0,1.1,1,0.00,,,0.00,WUHU216HW,2013-06-10 09:53:00,
2013-06-10 05:58:00,59.2,2.7,30.07,NW,315,0.0,1.1,1,0.00,,,0.00,WUHU216HW,2013-06-10 09:58:00,
2013-06-10 06:03:00,59.4,2.8,30.07,NW,315,0.0,0.7,1,0.00,,,0.00,WUHU216HW,2013-06-10 10:03:00,
2013-06-10 06:08:00,59.6,3.0,30.07,NW,315,0.0,0.4,1,0.00,,,0.00,WUHU216HW,2013-06-10 10:08:00,
2013-06-10 06:13:00,59.8,3.1,30.07,NW,315,0.0,1.1,1,0.00,,,0.00,WUHU216HW,2013-06-10 10:13:00,
2013-06-10 06:18:00,59.9,3.2,30.07,NW,315,0.0,1.1,1,0.00,,,0.00,WUHU216HW,2013-06-10 10:18:00,
2013-06-10 06:23:00,60.1,3.4,30.07,NW,315,0.0,0.4,1,0.00,,,0.00,WUHU216HW,2013-06-10 10:23:00,
2013-06-10 06:28:00,60.5,3.7,30.07,NW,315,0.0,0.4,1,0.00,,,0.00,WUHU216HW,2013-06-10 10:28:00,
2013-06-10 06:33:00,60.8,4.0,30.07,NW,315,0.0,0.0,1,0.00,,,0.00,WUHU216HW,2013-06-10 10:33:00,
2013-06-10 06:38:00,61.2,4.2,30.07,NW,315,0.7,0.7,1,0.00,,,0.00,WUHU216HW,2013-06-10 10:38:00,
2013-06-10 06:43:00,61.2,4.2,30.07,NW,315,1.3,1.3,1,0.00,,,0.00,WUHU216HW,2013-06-10 10:43:00,
2013-06-10 06:48:00,61.4,4.4,30.07,NW,315,0.0,1.3,1,0.00,,,0.00,WUHU216HW,2013-06-10 10:48:00,
2013-06-10 06:53:00,61.6,4.5,30.07,NW,315,0.4,0.9,1,0.00,,,0.00,WUHU216HW,2013-06-10 10:53:00,
2013-06-10 06:58:00,61.7,4.7,30.07,NW,315,0.4,0.9,1,0.00,,,0.00,WUHU216HW,2013-06-10 10:58:00,
2013-06-10 07:03:00,61.9,4.9,30.07,NW,315,0.4,0.7,1,0.00,,,0.00,WUHU216HW,2013-06-10 11:03:00,
2013-06-10 07:08:00,62.1,5.0,30.07,NW,315,0.4,0.7,1,0.00,,,0.00,WUHU216HW,2013-06-10 11:08:00,
2013-06-10 07:13:00,62.3,5.1,30.06,NNE,23,1.3,2.9,1,0.00,,,0.00,WUHU216HW,2013-06-10 11:13:00,
2013-06-10 07:18:00,62.5,5.2,30.06,NNE,23,0.2,2.9,1,0.00,,,0.00,WUHU216HW,2013-06-10 11:18:00,
2013-06-10 07:23:00,62.6,5.4,30.06,North,0,1.1,2.5,1,0.00,,,0.00,WUHU216HW,2013-06-10 11:23:00,
2013-06-10 07:28:00,62.6,5.4,30.06,NE,45,2.5,3.1,1,0.00,,,0.00,WUHU216HW,2013-06-10 11:28:00,
2013-06-10 07:33:00,62.8,5.5,30.06,North,0,1.6,3.1,1,0.00,,,0.00,WUHU216HW,2013-06-10 11:33:00,
2013-06-10 07:38:00,63.0,5.7,30.06,NNW,338,0.2,2.2,1,0.00,,,0.00,WUHU216HW,2013-06-10 11:38:00,
2013-06-10 07:43:00,63.0,5.7,30.06,NNW,338,0.4,2.0,1,0.00,,,0.00,WUHU216HW,2013-06-10 11:43:00,
2013-06-10 07:48:00,63.0,5.7,30.06,NE,45,0.0,2.0,1,0.00,,,0.00,WUHU216HW,2013-06-10 11:48:00,
2013-06-10 07:53:00,63.0,5.7,30.06,NNW,338,0.7,2.7,1,0.00,,,0.00,WUHU216HW,2013-06-10 11:53:00,
2013-06-10 07:58:00,63.0,5.7,30.06,NE,45,3.1,3.1,1,0.00,,,0.00,WUHU216HW,2013-06-10 11:58:00,
2013-06-10 08:03:00,63.0,5.7,30.06,East,90,0.9,3.4,1,0.00,,,0.00,WUHU216HW,2013-06-10 12:03:00,
2013-06-10 08:08:00,63.0,5.7,30.06,NNE,23,1.1,3.4,1,0.00,,,0.00,WUHU216HW,2013-06-10 12:08:00,
2013-06-10 08:13:00,63.2,5.8,30.06,North,0,2.9,2.9,1,0.00,,,0.00,WUHU216HW,2013-06-10 12:13:00,
2013-06-10 08:18:00,63.0,5.7,30.06,NNW,338,0.7,2.9,1,0.00,,,0.00,WUHU216HW,2013-06-10 12:18:00,
2013-06-10 08:23:00,63.2,5.8,30.06,North,0,0.4,2.0,1,0.00,,,0.00,WUHU216HW,2013-06-10 12:23:00,
2013-06-10 08:28:00,63.2,5.8,30.06,North,0,1.1,1.6,1,0.00,,,0.00,WUHU216HW,2013-06-10 12:28:00,
2013-06-10 08:33:00,63.4,6.0,30.05,NE,45,2.9,4.3,1,0.00,,,0.00,WUHU216HW,2013-06-10 12:33:00,
2013-06-10 08:38:00,63.7,6.1,30.05,NNW,338,1.3,4.3,1,0.00,,,0.00,WUHU216HW,2013-06-10 12:38:00,
2013-06-10 08:43:00,64.1,6.4,30.05,NE,45,2.5,3.1,1,0.00,,,0.00,WUHU216HW,2013-06-10 12:43:00,
2013-06-10 08:48:00,64.4,6.7,30.06,NNW,338,1.1,2.5,1,0.00,,,0.00,WUHU216HW,2013-06-10 12:48:00,
2013-06-10 08:53:00,64.4,6.7,30.06,NNW,338,1.3,1.8,1,0.00,,,0.00,WUHU216HW,2013-06-10 12:53:00,
2013-06-10 08:58:00,64.8,6.9,30.06,NNW,338,1.1,1.6,1,0.00,,,0.00,WUHU216HW,2013-06-10 12:58:00,
2013-06-10 09:03:00,64.8,6.9,30.06,North,0,1.6,1.6,1,0.00,,,0.00,WUHU216HW,2013-06-10 13:03:00,
2013-06-10 09:08:00,65.0,7.1,30.06,NNW,338,0.2,1.6,1,0.00,,,0.00,WUHU216HW,2013-06-10 13:08:00,
2013-06-10 09:13:00,65.2,7.2,30.06,SW,225,1.1,1.8,1,0.00,,,0.00,WUHU216HW,2013-06-10 13:13:00,
2013-06-10 09:18:00,65.7,7.7,30.06,NNW,338,1.1,1.8,1,0.00,,,0.00,WUHU216HW,2013-06-10 13:18:00,
2013-06-10 09:23:00,66.1,7.9,30.06,NNE,23,1.3,2.0,1,0.00,,,0.00,WUHU216HW,2013-06-10 13:23:00,
2013-06-10 09:28:00,66.2,8.1,30.06,SSE,158,0.9,2.7,1,0.00,,,0.00,WUHU216HW,2013-06-10 13:28:00,
2013-06-10 09:33:00,66.8,8.6,30.06,NW,315,0.4,2.7,1,0.00,,,0.00,WUHU216HW,2013-06-10 13:33:00,
2013-06-10 09:38:00,68.0,9.5,30.06,NNE,23,0.7,2.7,1,0.00,,,0.00,WUHU216HW,2013-06-10 13:38:00,
2013-06-10 09:43:00,68.8,10.1,30.06,SSW,203,0.7,2.0,1,0.00,,,0.00,WUHU216HW,2013-06-10 13:43:00,
2013-06-10 09:48:00,69.3,10.5,30.06,NE,45,0.4,2.0,1,0.00,,,0.00,WUHU216HW,2013-06-10 13:48:00,
2013-06-10 09:53:00,69.5,10.5,30.06,North,0,1.3,2.5,1,0.00,,,0.00,WUHU216HW,2013-06-10 13:53:00,
2013-06-10 09:58:00,69.7,10.7,30.06,SE,135,3.4,3.4,1,0.00,,,0.00,WUHU216HW,2013-06-10 13:58:00,
2013-06-10 10:03:00,69.8,10.8,30.06,East,90,1.8,3.4,1,0.00,,,0.00,WUHU216HW,2013-06-10 14:03:00,
2013-06-10 10:08:00,69.8,10.8,30.06,SE,135,0.2,3.4,1,0.00,,,0.00,WUHU216HW,2013-06-10 14:08:00,
2013-06-10 10:13:00,69.8,10.8,30.06,North,0,1.1,3.6,1,0.00,,,0.00,WUHU216HW,2013-06-10 14:13:00,
2013-06-10 10:18:00,69.7,10.7,30.05,ESE,113,1.1,3.6,1,0.00,,,0.00,WUHU216HW,2013-06-10 14:18:00,
2013-06-10 10:23:00,69.8,10.8,30.05,NW,315,1.6,1.6,1,0.00,,,0.00,WUHU216HW,2013-06-10 14:23:00,
2013-06-10 10:28:00,69.5,10.5,30.05,NNE,23,4.7,4.7,1,0.00,,,0.00,WUHU216HW,2013-06-10 14:28:00,
2013-06-10 10:33:00,69.1,10.3,30.05,North,0,1.1,4.7,1,0.00,,,0.00,WUHU216HW,2013-06-10 14:33:00,
2013-06-10 10:38:00,69.3,10.5,30.05,NNW,338,0.0,3.8,1,0.00,,,0.00,WUHU216HW,2013-06-10 14:38:00,
2013-06-10 10:43:00,69.3,10.5,30.04,NW,315,1.1,3.1,1,0.00,,,0.00,WUHU216HW,2013-06-10 14:43:00,
2013-06-10 10:48:00,69.1,10.3,30.04,East,90,1.6,3.1,1,0.00,,,0.00,WUHU216HW,2013-06-10 14:48:00,
2013-06-10 10:53:00,69.7,10.7,30.04,NNE,23,1.8,2.2,1,0.00,,,0.00,WUHU216HW,2013-06-10 14:53:00,
2013-06-10 10:58:00,69.8,10.8,30.04,NNW,338,0.7,1.8,1,0.00,,,0.00,WUHU216HW,2013-06-10 14:58:00,
2013-06-10 11:03:00,69.8,10.8,30.04,NNE,23,2.0,2.0,1,0.00,,,0.00,WUHU216HW,2013-06-10 15:03:00,
2013-06-10 11:08:00,69.8,10.8,30.04,SSW,203,1.3,2.0,1,0.00,,,0.00,WUHU216HW,2013-06-10 15:08:00,
2013-06-10 11:13:00,69.7,10.7,30.04,North,0,0.4,5.4,1,0.00,,,0.00,WUHU216HW,2013-06-10 15:13:00,
2013-06-10 11:18:00,70.0,11.0,30.04,WSW,248,0.4,5.4,1,0.00,,,0.00,WUHU216HW,2013-06-10 15:18:00,
2013-06-10 11:23:00,71.1,11.8,30.04,SSE,158,1.3,3.1,1,0.00,,,0.00,WUHU216HW,2013-06-10 15:23:00,
2013-06-10 11:28:00,71.8,12.4,30.04,WSW,248,3.4,3.4,1,0.00,,,0.00,WUHU216HW,2013-06-10 15:28:00,
2013-06-10 11:33:00,71.5,12.1,30.04,NNW,338,2.9,3.4,1,0.00,,,0.00,WUHU216HW,2013-06-10 15:33:00,
2013-06-10 11:38:00,71.3,12.0,30.04,NE,45,3.4,3.4,1,0.00,,,0.00,WUHU216HW,2013-06-10 15:38:00,
2013-06-10 11:43:00,71.3,12.0,30.04,NE,45,0.7,3.4,1,0.00,,,0.00,WUHU216HW,2013-06-10 15:43:00,
2013-06-10 11:48:00,71.6,12.2,30.04,South,180,0.4,1.8,1,0.00,,,0.00,WUHU216HW,2013-06-10 15:48:00,
2013-06-10 11:53:00,72.0,12.5,30.04,South,180,4.5,4.5,1,0.00,,,0.00,WUHU216HW,2013-06-10 15:53:00,
2013-06-10 11:58:00,72.0,12.5,30.04,North,0,1.1,4.5,1,0.00,,,0.00,WUHU216HW,2013-06-10 15:58:00,
2013-06-10 12:03:00,71.6,12.2,30.04,NNE,23,2.9,2.9,1,0.00,,,0.00,WUHU216HW,2013-06-10 16:03:00,
2013-06-10 12:08:00,71.6,12.2,30.04,SSE,158,4.9,4.9,1,0.00,,,0.00,WUHU216HW,2013-06-10 16:08:00,
2013-06-10 12:13:00,71.6,12.2,30.04,NE,45,3.6,4.9,1,0.00,,,0.00,WUHU216HW,2013-06-10 16:13:00,
2013-06-10 12:18:00,70.9,11.7,30.03,NNE,23,0.4,3.6,1,0.00,,,0.00,WUHU216HW,2013-06-10 16:18:00,
2013-06-10 12:23:00,71.5,12.1,30.04,NNE,23,2.9,2.9,1,0.00,,,0.00,WUHU216HW,2013-06-10 16:23:00,
2013-06-10 12:28:00,71.3,12.0,30.04,SW,225,1.3,5.1,1,0.00,,,0.00,WUHU216HW,2013-06-10 16:28:00,
2013-06-10 12:33:00,71.5,12.1,30.03,WSW,248,1.3,5.1,1,0.00,,,0.00,WUHU216HW,2013-06-10 16:33:00,
2013-06-10 12:39:00,71.3,12.0,30.03,South,180,2.2,7.2,1,0.00,,,0.00,WUHU216HW,2013-06-10 16:39:00,
2013-06-10 12:44:00,71.3,12.0,30.03,SW,225,1.1,7.2,1,0.00,,,0.00,WUHU216HW,2013-06-10 16:44:00,
2013-06-10 12:49:00,70.9,11.7,30.03,WSW,248,0.7,4.9,1,0.00,,,0.00,WUHU216HW,2013-06-10 16:49:00,
2013-06-10 12:54:00,70.6,11.3,30.03,SW,225,0.4,4.9,1,0.00,,,0.00,WUHU216HW,2013-06-10 16:54:00,
2013-06-10 12:59:00,70.0,11.0,30.02,SSE,158,1.1,3.4,1,0.00,,,0.00,WUHU216HW,2013-06-10 16:59:00,
2013-06-10 13:04:00,69.5,10.5,30.02,NNE,23,3.6,5.6,1,0.00,,,0.00,WUHU216HW,2013-06-10 17:04:00,
2013-06-10 13:09:00,68.8,10.1,30.02,ESE,113,1.8,5.6,1,0.00,,,0.00,WUHU216HW,2013-06-10 17:09:00,
2013-06-10 13:14:00,68.4,9.8,30.02,WSW,248,0.9,1.8,1,0.00,,,0.00,WUHU216HW,2013-06-10 17:14:00,
2013-06-10 13:19:00,68.0,9.5,30.02,NNW,338,1.3,2.5,1,0.00,,,0.00,WUHU216HW,2013-06-10 17:19:00,
2013-06-10 13:24:00,67.5,9.1,30.02,ESE,113,3.8,3.8,1,0.00,,,0.00,WUHU216HW,2013-06-10 17:24:00,
2013-06-10 13:29:00,67.3,9.0,30.02,SE,135,1.8,3.8,1,0.00,,,0.00,WUHU216HW,2013-06-10 17:29:00,
2013-06-10 13:34:00,67.3,9.0,30.02,SSW,203,1.1,3.4,1,0.00,,,0.00,WUHU216HW,2013-06-10 17:34:00,
2013-06-10 13:39:00,67.0,8.6,30.02,SW,225,2.2,3.4,1,0.00,,,0.00,WUHU216HW,2013-06-10 17:39:00,
2013-06-10 13:44:00,66.6,8.4,30.02,SSE,158,3.6,4.5,1,0.00,,,0.00,WUHU216HW,2013-06-10 17:44:00,
2013-06-10 13:49:00,66.2,8.1,30.02,South,180,4.7,4.7,1,0.00,,,0.00,WUHU216HW,2013-06-10 17:49:00,
2013-06-10 13:54:00,66.1,7.9,30.01,West,270,1.6,4.9,1,0.00,,,0.00,WUHU216HW,2013-06-10 17:54:00,
2013-06-10 13:59:00,65.9,7.8,30.01,NNW,338,0.9,4.9,1,0.00,,,0.00,WUHU216HW,2013-06-10 17:59:00,
2013-06-10 14:04:00,65.9,7.8,30.00,West,270,2.0,2.7,1,0.00,,,0.00,WUHU216HW,2013-06-10 18:04:00,
2013-06-10 14:09:00,65.5,7.6,30.00,SE,135,2.5,4.5,1,0.00,,,0.00,WUHU216HW,2013-06-10 18:09:00,
2013-06-10 14:14:00,65.3,7.4,29.99,North,0,2.5,4.5,1,0.00,,,0.00,WUHU216HW,2013-06-10 18:14:00,
2013-06-10 14:19:00,65.2,7.2,29.99,NE,45,4.5,4.5,1,0.00,,,0.00,WUHU216HW,2013-06-10 18:19:00,
2013-06-10 14:24:00,65.0,7.1,29.99,West,270,3.4,6.3,1,0.00,,,0.00,WUHU216HW,2013-06-10 18:24:00,
2013-06-10 14:29:00,65.0,7.1,29.99,WSW,248,2.5,6.3,1,0.00,,,0.00,WUHU216HW,2013-06-10 18:29:00,
2013-06-10 14:34:00,65.0,7.1,29.99,SW,225,1.8,4.0,1,0.00,,,0.00,WUHU216HW,2013-06-10 18:34:00,
2013-06-10 14:39:00,64.8,6.9,29.99,South,180,4.5,4.5,1,0.00,,,0.00,WUHU216HW,2013-06-10 18:39:00,
2013-06-10 14:44:00,64.6,6.9,29.99,ENE,68,3.6,4.5,1,0.00,,,0.00,WUHU216HW,2013-06-10 18:44:00,
2013-06-10 14:49:00,64.4,6.7,29.99,South,180,2.7,3.6,1,0.00,,,0.00,WUHU216HW,2013-06-10 18:49:00,
2013-06-10 14:54:00,64.4,6.7,29.98,ENE,68,4.3,4.3,1,0.00,,,0.00,WUHU216HW,2013-06-10 18:54:00,
2013-06-10 14:59:00,64.3,6.6,29.98,East,90,2.2,4.3,1,0.00,,,0.00,WUHU216HW,2013-06-10 18:59:00,
2013-06-10 15:04:00,64.3,6.6,29.98,South,180,3.1,4.0,1,0.00,,,0.00,WUHU216HW,2013-06-10 19:04:00,
2013-06-10 15:09:00,64.1,6.4,29.97,SSE,158,6.3,6.3,1,0.00,,,0.00,WUHU216HW,2013-06-10 19:09:00,
2013-06-10 15:14:00,64.1,6.4,29.97,SSE,158,4.7,6.3,1,0.00,,,0.00,WUHU216HW,2013-06-10 19:14:00,
2013-06-10 15:19:00,63.7,6.1,29.97,West,270,2.5,4.7,1,0.00,,,0.00,WUHU216HW,2013-06-10 19:19:00,
2013-06-10 15:24:00,63.5,6.0,29.97,NNW,338,1.1,6.0,1,0.00,,,0.00,WUHU216HW,2013-06-10 19:24:00,
2013-06-10 15:29:00,63.4,6.0,29.96,North,0,4.0,6.0,1,0.00,,,0.00,WUHU216HW,2013-06-10 19:29:00,
2013-06-10 15:34:00,63.2,5.8,29.96,ENE,68,0.4,4.3,1,0.00,,,0.00,WUHU216HW,2013-06-10 19:34:00,
2013-06-10 15:39:00,63.0,5.7,29.96,East,90,2.0,4.5,1,0.00,,,0.00,WUHU216HW,2013-06-10 19:39:00,
2013-06-10 15:44:00,63.0,5.7,29.96,South,180,3.4,4.5,1,0.00,,,0.00,WUHU216HW,2013-06-10 19:44:00,
2013-06-10 15:49:00,62.8,5.5,29.96,NNE,23,1.6,5.1,1,0.00,,,0.00,WUHU216HW,2013-06-10 19:49:00,
2013-06-10 15:54:00,62.8,5.5,29.96,NNE,23,2.5,5.1,1,0.00,,,0.00,WUHU216HW,2013-06-10 19:54:00,
2013-06-10 15:59:00,62.6,5.4,29.96,ESE,113,0.9,6.9,1,0.00,,,0.00,WUHU216HW,2013-06-10 19:59:00,
2013-06-10 16:04:00,62.5,5.2,29.95,NNW,338,1.8,6.9,1,0.00,,,0.00,WUHU216HW,2013-06-10 20:04:00,
2013-06-10 16:09:00,62.3,5.1,29.95,WNW,293,0.0,5.4,1,0.00,,,0.00,WUHU216HW,2013-06-10 20:09:00,
2013-06-10 16:14:00,62.3,5.1,29.95,SE,135,1.8,3.6,1,0.00,,,0.00,WUHU216HW,2013-06-10 20:14:00,
2013-06-10 16:19:00,62.1,5.0,29.95,SE,135,0.9,3.6,1,0.00,,,0.00,WUHU216HW,2013-06-10 20:19:00,
2013-06-10 16:24:00,62.1,5.0,29.95,SSE,158,2.9,5.4,1,0.00,,,0.00,WUHU216HW,2013-06-10 20:24:00,
2013-06-10 16:29:00,61.9,4.9,29.94,SSE,158,2.2,5.4,1,0.00,,,0.00,WUHU216HW,2013-06-10 20:29:00,
2013-06-10 16:34:00,61.9,4.9,29.94,NE,45,2.0,4.7,1,0.00,,,0.00,WUHU216HW,2013-06-10 20:34:00,
2013-06-10 16:39:00,61.7,4.7,29.94,WSW,248,2.5,4.0,1,0.00,,,0.00,WUHU216HW,2013-06-10 20:39:00,
2013-06-10 16:44:00,61.6,4.5,29.94,WNW,293,2.2,8.3,1,0.00,,,0.00,WUHU216HW,2013-06-10 20:44:00,
2013-06-10 16:49:00,61.6,4.5,29.94,South,180,3.6,8.3,1,0.00,,,0.00,WUHU216HW,2013-06-10 20:49:00,
2013-06-10 16:54:00,61.4,4.4,29.94,North,0,1.6,6.3,1,0.00,,,0.00,WUHU216HW,2013-06-10 20:54:00,
2013-06-10 16:59:00,61.4,4.4,29.94,North,0,1.8,6.3,1,0.00,,,0.00,WUHU216HW,2013-06-10 20:59:00,
2013-06-10 17:04:00,61.2,4.2,29.94,NW,315,2.7,6.7,1,0.00,,,0.00,WUHU216HW,2013-06-10 21:04:00,
2013-06-10 17:09:00,61.0,4.2,29.93,WSW,248,2.5,6.7,1,0.00,,,0.00,WUHU216HW,2013-06-10 21:09:00,
2013-06-10 17:14:00,61.0,4.2,29.93,NE,45,3.1,5.4,1,0.00,,,0.00,WUHU216HW,2013-06-10 21:14:00,
2013-06-10 17:19:00,61.0,4.2,29.93,NE,45,4.7,7.6,1,0.00,,,0.00,WUHU216HW,2013-06-10 21:19:00,
2013-06-10 17:24:00,60.8,4.0,29.93,NE,45,4.0,7.6,1,0.00,,,0.00,WUHU216HW,2013-06-10 21:24:00,
2013-06-10 17:29:00,60.8,4.0,29.92,NW,315,1.1,4.7,1,0.00,,,0.00,WUHU216HW,2013-06-10 21:29:00,
2013-06-10 17:34:00,60.8,4.0,29.92,SW,225,1.6,4.7,1,0.00,,,0.00,WUHU216HW,2013-06-10 21:34:00,
2013-06-10 17:39:00,60.5,3.7,29.92,NNE,23,2.7,3.4,1,0.00,,,0.00,WUHU216HW,2013-06-10 21:39:00,
2013-06-10 17:44:00,60.3,3.5,29.92,ENE,68,7.4,7.4,1,0.00,,,0.00,WUHU216HW,2013-06-10 21:44:00,
2013-06-10 17:49:00,60.3,3.5,29.91,NNE,23,1.8,7.4,1,0.00,,,0.00,WUHU216HW,2013-06-10 21:49:00,
2013-06-10 17:54:00,60.3,3.5,29.91,ENE,68,2.5,3.4,1,0.00,,,0.00,WUHU216HW,2013-06-10 21:54:00,
2013-06-10 17:59:00,60.1,3.4,29.91,NNW,338,3.1,4.3,1,0.00,,,0.00,WUHU216HW,2013-06-10 21:59:00,
2013-06-10 18:04:00,60.1,3.4,29.91,ESE,113,5.4,5.4,1,0.00,,,0.00,WUHU216HW,2013-06-10 22:04:00,
2013-06-10 18:09:00,59.9,3.2,29.90,NE,45,6.9,6.9,1,0.00,,,0.00,WUHU216HW,2013-06-10 22:09:00,
2013-06-10 18:14:00,59.8,3.1,29.91,North,0,2.5,6.9,1,0.00,,,0.00,WUHU216HW,2013-06-10 22:14:00,
2013-06-10 18:19:00,59.6,3.0,29.91,ENE,68,5.4,6.5,1,0.00,,,0.00,WUHU216HW,2013-06-10 22:19:00,
2013-06-10 18:24:00,59.6,3.0,29.91,NNE,23,1.3,6.5,1,0.00,,,0.00,WUHU216HW,2013-06-10 22:24:00,
2013-06-10 18:29:00,59.8,3.1,29.90,NNE,23,8.7,8.7,1,0.00,,,0.00,WUHU216HW,2013-06-10 22:29:00,
2013-06-10 18:34:00,59.6,3.0,29.90,East,90,4.9,9.2,1,0.00,,,0.00,WUHU216HW,2013-06-10 22:34:00,
2013-06-10 18:39:00,59.4,2.8,29.90,ENE,68,2.7,9.2,1,0.00,,,0.00,WUHU216HW,2013-06-10 22:39:00,
2013-06-10 18:44:00,59.4,2.8,29.90,NNW,338,1.8,7.4,1,0.00,,,0.00,WUHU216HW,2013-06-10 22:44:00,
2013-06-10 18:49:00,59.4,2.8,29.90,West,270,2.9,8.1,1,0.00,,,0.00,WUHU216HW,2013-06-10 22:49:00,
2013-06-10 18:54:00,59.0,2.5,29.90,WSW,248,2.5,8.1,1,0.00,,,0.00,WUHU216HW,2013-06-10 22:54:00,
2013-06-10 18:59:00,59.0,2.5,29.89,ENE,68,2.2,6.5,1,0.00,,,0.00,WUHU216HW,2013-06-10 22:59:00,
2013-06-10 19:04:00,59.0,2.5,29.89,NNW,338,2.7,4.7,1,0.00,,,0.00,WUHU216HW,2013-06-10 23:04:00,
2013-06-10 19:09:00,58.9,2.3,29.89,ESE,113,2.2,5.6,1,0.00,,,0.00,WUHU216HW,2013-06-10 23:09:00,
2013-06-10 19:14:00,58.9,2.3,29.89,WSW,248,1.3,5.6,1,0.00,,,0.00,WUHU216HW,2013-06-10 23:14:00,
2013-06-10 19:19:00,58.7,2.3,29.90,SSW,203,2.5,4.7,1,0.00,,,0.00,WUHU216HW,2013-06-10 23:19:00,
2013-06-10 19:24:00,58.7,2.3,29.89,NNE,23,1.1,4.7,1,0.00,,,0.00,WUHU216HW,2013-06-10 23:24:00,
2013-06-10 19:29:00,58.7,2.3,29.89,NNE,23,0.7,2.5,1,0.00,,,0.00,WUHU216HW,2013-06-10 23:29:00,
2013-06-10 19:34:00,58.5,2.1,29.89,ENE,68,2.2,3.4,1,0.00,,,0.00,WUHU216HW,2013-06-10 23:34:00,
2013-06-10 19:39:00,58.5,2.1,29.89,NNE,23,1.1,4.7,1,0.00,,,0.00,WUHU216HW,2013-06-10 23:39:00,
2013-06-10 19:44:00,58.5,2.1,29.89,NNE,23,3.8,4.7,1,0.00,,,0.00,WUHU216HW,2013-06-10 23:44:00,
2013-06-10 19:49:00,58.5,2.1,29.88,North,0,4.7,4.7,1,0.00,,,0.00,WUHU216HW,2013-06-10 23:49:00,
2013-06-10 19:54:00,58.5,2.1,29.88,East,90,3.4,4.7,1,0.00,,,0.00,WUHU216HW,2013-06-10 23:54:00,
2013-06-10 19:59:00,58.5,2.1,29.88,North,0,2.5,3.4,1,0.00,,,0.00,WUHU216HW,2013-06-10 23:59:00,
2013-06-10 20:04:00,58.5,2.1,29.88,SSE,158,1.8,3.4,1,0.00,,,0.00,WUHU216HW,2013-06-11 00:04:00,
2013-06-10 20:09:00,58.5,2.1,29.88,SSW,203,3.1,3.1,1,0.00,,,0.00,WUHU216HW,2013-06-11 00:09:00,
2013-06-10 20:14:00,58.3,2.0,29.87,SSE,158,0.0,3.4,1,0.00,,,0.00,WUHU216HW,2013-06-11 00:14:00,
2013-06-10 20:19:00,58.3,2.0,29.87,WNW,293,0.7,6.7,1,0.00,,,0.00,WUHU216HW,2013-06-11 00:19:00,
2013-06-10 20:24:00,58.5,2.1,29.87,NE,45,0.7,6.7,1,0.00,,,0.00,WUHU216HW,2013-06-11 00:24:00,
2013-06-10 20:29:00,58.3,2.0,29.87,South,180,4.7,6.5,1,0.00,,,0.00,WUHU216HW,2013-06-11 00:29:00,
2013-06-10 20:34:00,58.3,2.0,29.86,NW,315,4.0,6.5,1,0.00,,,0.00,WUHU216HW,2013-06-11 00:34:00,
2013-06-10 20:39:00,58.3,2.0,29.86,West,270,3.6,5.8,1,0.00,,,0.00,WUHU216HW,2013-06-11 00:39:00,
2013-06-10 20:44:00,58.3,2.0,29.86,ENE,68,1.3,5.8,1,0.00,,,0.00,WUHU216HW,2013-06-11 00:44:00,
2013-06-10 20:49:00,58.3,2.0,29.86,WNW,293,3.4,3.8,1,0.00,,,0.00,WUHU216HW,2013-06-11 00:49:00,
2013-06-10 20:54:00,58.3,2.0,29.86,ENE,68,2.5,7.6,1,0.00,,,0.00,WUHU216HW,2013-06-11 00:54:00,
2013-06-10 20:59:00,58.1,1.8,29.86,NNE,23,2.0,7.6,1,0.00,,,0.00,WUHU216HW,2013-06-11 00:59:00,
2013-06-10 21:04:00,58.1,1.8,29.86,ENE,68,3.8,4.9,1,0.00,,,0.00,WUHU216HW,2013-06-11 01:04:00,
2013-06-10 21:10:00,58.1,1.8,29.86,NE,45,2.5,3.8,1,0.00,,,0.00,WUHU216HW,2013-06-11 01:10:00,
2013-06-10 21:15:00,58.0,1.6,29.86,NNE,23,4.7,6.3,1,0.00,,,0.00,WUHU216HW,2013-06-11 01:15:00,
2013-06-10 21:20:00,58.0,1.6,29.85,NE,45,3.1,6.5,1,0.00,,,0.00,WUHU216HW,2013-06-11 01:20:00,
2013-06-10 21:25:00,58.0,1.6,29.85,WSW,248,1.3,6.5,1,0.00,,,0.00,WUHU216HW,2013-06-11 01:25:00,
2013-06-10 21:30:00,58.0,1.6,29.84,North,0,5.4,5.4,1,0.00,,,0.00,WUHU216HW,2013-06-11 01:30:00,
2013-06-10 21:35:00,58.0,1.6,29.85,NE,45,2.5,5.4,1,0.00,,,0.00,WUHU216HW,2013-06-11 01:35:00,
2013-06-10 21:40:00,58.0,1.6,29.85,WSW,248,0.4,5.4,1,0.00,,,0.00,WUHU216HW,2013-06-11 01:40:00,
2013-06-10 21:45:00,58.1,1.8,29.85,West,270,2.5,4.9,1,0.00,,,0.00,WUHU216HW,2013-06-11 01:45:00,
2013-06-10 21:50:00,58.0,1.6,29.85,ENE,68,1.3,4.9,1,0.00,,,0.00,WUHU216HW,2013-06-11 01:50:00,
2013-06-10 21:55:00,58.1,1.8,29.85,NE,45,1.8,4.5,1,0.00,,,0.00,WUHU216HW,2013-06-11 01:55:00,
2013-06-10 22:00:00,58.1,1.8,29.84,NNE,23,3.4,6.0,1,0.00,,,0.00,WUHU216HW,2013-06-11 02:00:00,
2013-06-10 22:05:00,58.1,1.8,29.84,NW,315,2.7,6.0,1,0.00,,,0.00,WUHU216HW,2013-06-11 02:05:00,
2013-06-10 22:10:00,58.1,1.8,29.83,NNW,338,1.8,6.7,1,0.00,,,0.00,WUHU216HW,2013-06-11 02:10:00,
2013-06-10 22:15:00,58.1,1.8,29.84,NE,45,1.8,6.7,1,0.00,,,0.00,WUHU216HW,2013-06-11 02:15:00,
2013-06-10 22:20:00,58.1,1.8,29.83,WNW,293,5.4,5.4,1,0.00,,,0.00,WUHU216HW,2013-06-11 02:20:00,
2013-06-10 22:25:00,58.1,1.8,29.83,ENE,68,4.3,7.6,1,0.00,,,0.00,WUHU216HW,2013-06-11 02:25:00,
2013-06-10 22:30:00,58.0,1.6,29.83,ENE,68,4.7,7.6,1,0.00,,,0.00,WUHU216HW,2013-06-11 02:30:00,
2013-06-10 22:35:00,58.0,1.6,29.83,West,270,2.7,6.3,1,0.00,,,0.00,WUHU216HW,2013-06-11 02:35:00,
2013-06-10 22:40:00,58.0,1.6,29.83,East,90,1.6,4.7,1,0.00,,,0.00,WUHU216HW,2013-06-11 02:40:00,
2013-06-10 22:45:00,58.0,1.6,29.82,ENE,68,3.1,4.7,1,0.00,,,0.00,WUHU216HW,2013-06-11 02:45:00,
2013-06-10 22:50:00,58.0,1.6,29.83,NE,45,0.2,6.3,1,0.00,,,0.00,WUHU216HW,2013-06-11 02:50:00,
2013-06-10 22:55:00,58.0,1.6,29.82,NNE,23,1.6,6.3,1,0.00,,,0.00,WUHU216HW,2013-06-11 02:55:00,
2013-06-10 23:00:00,58.0,1.6,29.83,WNW,293,1.3,4.3,1,0.00,,,0.00,WUHU216HW,2013-06-11 03:00:00,
2013-06-10 23:05:00,58.0,1.6,29.83,NNW,338,0.9,4.3,1,0.00,,,0.00,WUHU216HW,2013-06-11 03:05:00,
2013-06-10 23:10:00,58.0,1.6,29.82,ENE,68,3.4,5.4,1,0.00,,,0.00,WUHU216HW,2013-06-11 03:10:00,
2013-06-10 23:15:00,58.0,1.6,29.82,ENE,68,1.1,5.4,1,0.00,,,0.00,WUHU216HW,2013-06-11 03:15:00,
2013-06-10 23:20:00,58.0,1.6,29.82,NE,45,1.6,6.7,1,0.00,,,0.00,WUHU216HW,2013-06-11 03:20:00,
2013-06-10 23:25:00,58.0,1.6,29.82,NNW,338,0.4,6.7,1,0.00,,,0.00,WUHU216HW,2013-06-11 03:25:00,
2013-06-10 23:30:00,58.0,1.6,29.82,NNE,23,0.7,4.0,1,0.00,,,0.00,WUHU216HW,2013-06-11 03:30:00,
2013-06-10 23:35:00,58.0,1.6,29.81,NNE,23,1.1,4.0,1,0.00,,,0.00,WUHU216HW,2013-06-11 03:35:00,
2013-06-10 23:40:00,58.0,1.6,29.81,North,0,2.7,4.9,1,0.00,,,0.00,WUHU216HW,2013-06-11 03:40:00,
2013-06-10 23:45:00,58.0,1.6,29.80,ESE,113,2.5,4.9,1,0.00,,,0.00,WUHU216HW,2013-06-11 03:45:00,
2013-06-10 23:50:00,58.0,1.6,29.80,NNE,23,2.0,3.4,1,0.00,,,0.00,WUHU216HW,2013-06-11 03:50:00,
2013-06-10 23:55:00,58.0,1.6,29.80,ENE,68,2.2,6.0,1,0.00,,,0.00,WUHU216HW,2013-06-11 03:55:00,